sensor_id;sensor_type;location;lat;lon;timestamp;P1;durP1;ratioP1;P2;durP2;ratioP2
15905;SDS011;8051;50.820;4.884;2023-06-14T00:01:06;11.07;;;10.10;;
15905;SDS011;8051;50.820;4.884;2023-06-14T00:03:34;11.03;;;10.20;;
15905;SDS011;8051;50.820;4.884;2023-06-14T00:06:02;11.20;;;10.03;;
15905;SDS011;8051;50.820;4.884;2023-06-14T00:08:30;10.47;;;9.67;;
15905;SDS011;8051;50.820;4.884;2023-06-14T00:10:57;10.90;;;10.10;;
15905;SDS011;8051;50.820;4.884;2023-06-14T00:13:26;10.77;;;9.77;;
15905;SDS011;8051;50.820;4.884;2023-06-14T00:15:54;10.90;;;10.00;;
15905;SDS011;8051;50.820;4.884;2023-06-14T00:18:21;16.33;;;10.77;;
15905;SDS011;8051;50.820;4.884;2023-06-14T00:20:51;13.27;;;10.20;;
15905;SDS011;8051;50.820;4.884;2023-06-14T00:23:19;11.20;;;10.20;;
15905;SDS011;8051;50.820;4.884;2023-06-14T00:25:46;11.23;;;10.17;;
15905;SDS011;8051;50.820;4.884;2023-06-14T00:28:14;11.47;;;10.47;;
15905;SDS011;8051;50.820;4.884;2023-06-14T00:30:43;10.67;;;9.83;;
15905;SDS011;8051;50.820;4.884;2023-06-14T00:33:11;11.90;;;10.70;;
15905;SDS011;8051;50.820;4.884;2023-06-14T00:35:39;11.07;;;9.97;;
15905;SDS011;8051;50.820;4.884;2023-06-14T00:38:06;14.43;;;10.57;;
15905;SDS011;8051;50.820;4.884;2023-06-14T00:40:33;12.70;;;10.17;;
15905;SDS011;8051;50.820;4.884;2023-06-14T00:43:01;11.57;;;10.40;;
15905;SDS011;8051;50.820;4.884;2023-06-14T00:45:28;29.73;;;11.57;;
15905;SDS011;8051;50.820;4.884;2023-06-14T00:47:58;12.40;;;11.40;;
15905;SDS011;8051;50.820;4.884;2023-06-14T00:50:27;11.97;;;11.07;;
15905;SDS011;8051;50.820;4.884;2023-06-14T00:52:57;12.67;;;11.67;;
15905;SDS011;8051;50.820;4.884;2023-06-14T00:55:25;11.50;;;10.67;;
15905;SDS011;8051;50.820;4.884;2023-06-14T00:57:53;14.17;;;11.73;;
15905;SDS011;8051;50.820;4.884;2023-06-14T01:00:21;11.67;;;10.67;;
15905;SDS011;8051;50.820;4.884;2023-06-14T01:02:48;12.07;;;11.17;;
15905;SDS011;8051;50.820;4.884;2023-06-14T01:05:17;11.83;;;10.90;;
15905;SDS011;8051;50.820;4.884;2023-06-14T01:07:49;12.23;;;11.10;;
15905;SDS011;8051;50.820;4.884;2023-06-14T01:10:32;12.23;;;10.97;;
15905;SDS011;8051;50.820;4.884;2023-06-14T01:13:07;11.07;;;10.03;;
15905;SDS011;8051;50.820;4.884;2023-06-14T01:15:41;12.37;;;11.47;;
15905;SDS011;8051;50.820;4.884;2023-06-14T01:18:10;11.73;;;10.73;;
15905;SDS011;8051;50.820;4.884;2023-06-14T01:20:44;11.13;;;10.43;;
15905;SDS011;8051;50.820;4.884;2023-06-14T01:23:15;11.50;;;10.50;;
15905;SDS011;8051;50.820;4.884;2023-06-14T01:25:43;12.03;;;11.10;;
15905;SDS011;8051;50.820;4.884;2023-06-14T01:28:12;11.70;;;10.80;;
15905;SDS011;8051;50.820;4.884;2023-06-14T01:30:42;12.57;;;11.43;;
15905;SDS011;8051;50.820;4.884;2023-06-14T01:33:11;11.83;;;10.63;;
15905;SDS011;8051;50.820;4.884;2023-06-14T01:35:40;10.90;;;10.10;;
15905;SDS011;8051;50.820;4.884;2023-06-14T01:38:09;11.67;;;10.87;;
15905;SDS011;8051;50.820;4.884;2023-06-14T01:40:38;11.43;;;10.07;;
15905;SDS011;8051;50.820;4.884;2023-06-14T01:43:06;10.80;;;10.00;;
15905;SDS011;8051;50.820;4.884;2023-06-14T01:45:34;10.63;;;9.80;;
15905;SDS011;8051;50.820;4.884;2023-06-14T01:48:03;11.87;;;10.93;;
15905;SDS011;8051;50.820;4.884;2023-06-14T01:50:31;12.63;;;11.60;;
15905;SDS011;8051;50.820;4.884;2023-06-14T01:52:59;11.97;;;10.83;;
15905;SDS011;8051;50.820;4.884;2023-06-14T01:55:26;12.67;;;11.67;;
15905;SDS011;8051;50.820;4.884;2023-06-14T01:57:55;12.57;;;11.27;;
15905;SDS011;8051;50.820;4.884;2023-06-14T02:00:24;12.77;;;11.77;;
15905;SDS011;8051;50.820;4.884;2023-06-14T02:02:51;12.47;;;11.47;;
15905;SDS011;8051;50.820;4.884;2023-06-14T02:05:19;12.47;;;11.47;;
15905;SDS011;8051;50.820;4.884;2023-06-14T02:07:46;11.83;;;10.73;;
15905;SDS011;8051;50.820;4.884;2023-06-14T02:10:14;12.63;;;11.43;;
15905;SDS011;8051;50.820;4.884;2023-06-14T02:12:42;18.57;;;11.40;;
15905;SDS011;8051;50.820;4.884;2023-06-14T02:15:12;12.57;;;11.63;;
15905;SDS011;8051;50.820;4.884;2023-06-14T02:17:43;11.77;;;10.73;;
15905;SDS011;8051;50.820;4.884;2023-06-14T02:20:12;12.80;;;11.33;;
15905;SDS011;8051;50.820;4.884;2023-06-14T02:22:40;13.97;;;11.47;;
15905;SDS011;8051;50.820;4.884;2023-06-14T02:25:08;11.37;;;10.50;;
15905;SDS011;8051;50.820;4.884;2023-06-14T02:27:35;11.63;;;10.60;;
15905;SDS011;8051;50.820;4.884;2023-06-14T02:30:03;12.67;;;11.67;;
15905;SDS011;8051;50.820;4.884;2023-06-14T02:32:33;11.73;;;10.87;;
15905;SDS011;8051;50.820;4.884;2023-06-14T02:35:00;12.40;;;11.30;;
15905;SDS011;8051;50.820;4.884;2023-06-14T02:37:28;12.87;;;11.57;;
15905;SDS011;8051;50.820;4.884;2023-06-14T02:39:56;13.67;;;11.73;;
15905;SDS011;8051;50.820;4.884;2023-06-14T02:42:23;12.83;;;11.63;;
15905;SDS011;8051;50.820;4.884;2023-06-14T02:44:51;12.07;;;11.17;;
15905;SDS011;8051;50.820;4.884;2023-06-14T02:47:18;12.53;;;11.47;;
15905;SDS011;8051;50.820;4.884;2023-06-14T02:49:47;12.33;;;11.33;;
15905;SDS011;8051;50.820;4.884;2023-06-14T02:52:15;12.23;;;11.10;;
15905;SDS011;8051;50.820;4.884;2023-06-14T02:54:42;12.13;;;11.23;;
15905;SDS011;8051;50.820;4.884;2023-06-14T02:57:11;13.43;;;11.63;;
15905;SDS011;8051;50.820;4.884;2023-06-14T02:59:38;11.80;;;10.80;;
15905;SDS011;8051;50.820;4.884;2023-06-14T03:02:06;11.87;;;10.77;;
15905;SDS011;8051;50.820;4.884;2023-06-14T03:04:33;12.43;;;11.53;;
15905;SDS011;8051;50.820;4.884;2023-06-14T03:07:04;12.47;;;11.37;;
15905;SDS011;8051;50.820;4.884;2023-06-14T03:09:35;12.20;;;11.00;;
15905;SDS011;8051;50.820;4.884;2023-06-14T03:12:03;13.93;;;11.63;;
15905;SDS011;8051;50.820;4.884;2023-06-14T03:14:32;12.33;;;11.03;;
15905;SDS011;8051;50.820;4.884;2023-06-14T03:17:00;18.43;;;13.20;;
15905;SDS011;8051;50.820;4.884;2023-06-14T03:19:27;14.67;;;12.13;;
15905;SDS011;8051;50.820;4.884;2023-06-14T03:21:55;12.97;;;11.77;;
15905;SDS011;8051;50.820;4.884;2023-06-14T03:24:25;12.87;;;11.67;;
15905;SDS011;8051;50.820;4.884;2023-06-14T03:26:53;12.97;;;11.77;;
15905;SDS011;8051;50.820;4.884;2023-06-14T03:29:21;13.07;;;11.90;;
15905;SDS011;8051;50.820;4.884;2023-06-14T03:31:58;13.47;;;12.13;;
15905;SDS011;8051;50.820;4.884;2023-06-14T03:34:26;14.27;;;12.87;;
15905;SDS011;8051;50.820;4.884;2023-06-14T03:36:54;13.57;;;12.40;;
15905;SDS011;8051;50.820;4.884;2023-06-14T03:39:22;12.83;;;11.80;;
15905;SDS011;8051;50.820;4.884;2023-06-14T03:41:50;14.17;;;12.97;;
15905;SDS011;8051;50.820;4.884;2023-06-14T03:44:18;14.93;;;13.43;;
15905;SDS011;8051;50.820;4.884;2023-06-14T03:46:46;13.60;;;12.50;;
15905;SDS011;8051;50.820;4.884;2023-06-14T03:49:13;14.20;;;12.83;;
15905;SDS011;8051;50.820;4.884;2023-06-14T03:51:42;14.73;;;13.27;;
15905;SDS011;8051;50.820;4.884;2023-06-14T03:54:10;13.83;;;12.80;;
15905;SDS011;8051;50.820;4.884;2023-06-14T03:56:37;14.83;;;13.33;;
15905;SDS011;8051;50.820;4.884;2023-06-14T03:59:06;13.70;;;12.60;;
15905;SDS011;8051;50.820;4.884;2023-06-14T04:01:34;14.03;;;12.87;;
15905;SDS011;8051;50.820;4.884;2023-06-14T04:04:01;12.53;;;11.53;;
15905;SDS011;8051;50.820;4.884;2023-06-14T04:06:29;12.20;;;11.10;;
15905;SDS011;8051;50.820;4.884;2023-06-14T04:08:58;12.70;;;11.53;;
15905;SDS011;8051;50.820;4.884;2023-06-14T04:11:29;12.27;;;11.20;;
15905;SDS011;8051;50.820;4.884;2023-06-14T04:13:57;13.03;;;12.03;;
15905;SDS011;8051;50.820;4.884;2023-06-14T04:16:26;12.70;;;11.60;;
15905;SDS011;8051;50.820;4.884;2023-06-14T04:18:54;12.93;;;11.60;;
15905;SDS011;8051;50.820;4.884;2023-06-14T04:21:23;12.80;;;11.63;;
15905;SDS011;8051;50.820;4.884;2023-06-14T04:23:51;12.60;;;11.70;;
15905;SDS011;8051;50.820;4.884;2023-06-14T04:26:20;12.90;;;11.60;;
15905;SDS011;8051;50.820;4.884;2023-06-14T04:28:49;13.20;;;12.07;;
15905;SDS011;8051;50.820;4.884;2023-06-14T04:31:17;14.53;;;13.17;;
15905;SDS011;8051;50.820;4.884;2023-06-14T04:33:48;13.23;;;12.00;;
15905;SDS011;8051;50.820;4.884;2023-06-14T04:36:15;12.40;;;11.33;;
15905;SDS011;8051;50.820;4.884;2023-06-14T04:38:44;13.03;;;11.83;;
15905;SDS011;8051;50.820;4.884;2023-06-14T04:41:11;14.33;;;13.13;;
15905;SDS011;8051;50.820;4.884;2023-06-14T04:43:39;13.90;;;12.70;;
15905;SDS011;8051;50.820;4.884;2023-06-14T04:46:08;13.80;;;12.40;;
15905;SDS011;8051;50.820;4.884;2023-06-14T04:48:36;15.73;;;13.33;;
15905;SDS011;8051;50.820;4.884;2023-06-14T04:51:07;13.80;;;12.70;;
15905;SDS011;8051;50.820;4.884;2023-06-14T04:53:35;13.87;;;12.57;;
15905;SDS011;8051;50.820;4.884;2023-06-14T04:56:03;13.60;;;12.40;;
15905;SDS011;8051;50.820;4.884;2023-06-14T04:58:31;15.73;;;13.03;;
15905;SDS011;8051;50.820;4.884;2023-06-14T05:00:58;14.10;;;12.90;;
15905;SDS011;8051;50.820;4.884;2023-06-14T05:03:27;12.53;;;11.53;;
15905;SDS011;8051;50.820;4.884;2023-06-14T05:05:55;14.37;;;13.07;;
15905;SDS011;8051;50.820;4.884;2023-06-14T05:08:24;13.60;;;12.37;;
15905;SDS011;8051;50.820;4.884;2023-06-14T05:10:52;17.83;;;11.53;;
15905;SDS011;8051;50.820;4.884;2023-06-14T05:13:19;13.73;;;12.63;;
15905;SDS011;8051;50.820;4.884;2023-06-14T05:15:48;12.77;;;11.70;;
15905;SDS011;8051;50.820;4.884;2023-06-14T05:18:15;13.43;;;11.97;;
15905;SDS011;8051;50.820;4.884;2023-06-14T05:20:43;14.33;;;12.93;;
15905;SDS011;8051;50.820;4.884;2023-06-14T05:23:11;14.03;;;12.57;;
15905;SDS011;8051;50.820;4.884;2023-06-14T05:25:43;12.03;;;11.03;;
15905;SDS011;8051;50.820;4.884;2023-06-14T05:28:11;14.07;;;11.43;;
15905;SDS011;8051;50.820;4.884;2023-06-14T05:30:38;15.80;;;12.07;;
15905;SDS011;8051;50.820;4.884;2023-06-14T05:33:06;12.90;;;11.80;;
15905;SDS011;8051;50.820;4.884;2023-06-14T05:35:33;12.63;;;11.43;;
15905;SDS011;8051;50.820;4.884;2023-06-14T05:38:01;14.40;;;13.10;;
15905;SDS011;8051;50.820;4.884;2023-06-14T05:40:28;11.77;;;10.97;;
15905;SDS011;8051;50.820;4.884;2023-06-14T05:42:57;12.53;;;11.40;;
15905;SDS011;8051;50.820;4.884;2023-06-14T05:45:25;13.70;;;12.43;;
15905;SDS011;8051;50.820;4.884;2023-06-14T05:47:52;13.57;;;12.33;;
15905;SDS011;8051;50.820;4.884;2023-06-14T05:50:20;12.60;;;11.70;;
15905;SDS011;8051;50.820;4.884;2023-06-14T05:52:48;13.33;;;12.33;;
15905;SDS011;8051;50.820;4.884;2023-06-14T05:55:15;14.33;;;13.23;;
15905;SDS011;8051;50.820;4.884;2023-06-14T05:57:43;14.33;;;12.90;;
15905;SDS011;8051;50.820;4.884;2023-06-14T06:00:13;13.70;;;12.60;;
15905;SDS011;8051;50.820;4.884;2023-06-14T06:02:41;14.77;;;13.27;;
15905;SDS011;8051;50.820;4.884;2023-06-14T06:05:10;13.77;;;11.87;;
15905;SDS011;8051;50.820;4.884;2023-06-14T06:07:38;13.57;;;12.37;;
15905;SDS011;8051;50.820;4.884;2023-06-14T06:10:06;13.50;;;12.20;;
15905;SDS011;8051;50.820;4.884;2023-06-14T06:12:34;12.23;;;11.13;;
15905;SDS011;8051;50.820;4.884;2023-06-14T06:15:02;14.60;;;12.63;;
15905;SDS011;8051;50.820;4.884;2023-06-14T06:17:31;16.20;;;11.67;;
15905;SDS011;8051;50.820;4.884;2023-06-14T06:19:59;14.13;;;12.83;;
15905;SDS011;8051;50.820;4.884;2023-06-14T06:22:26;12.70;;;11.37;;
15905;SDS011;8051;50.820;4.884;2023-06-14T06:24:54;12.93;;;11.67;;
15905;SDS011;8051;50.820;4.884;2023-06-14T06:27:21;13.57;;;12.37;;
15905;SDS011;8051;50.820;4.884;2023-06-14T06:29:48;12.40;;;11.40;;
15905;SDS011;8051;50.820;4.884;2023-06-14T06:32:16;15.43;;;13.00;;
15905;SDS011;8051;50.820;4.884;2023-06-14T06:34:46;12.93;;;12.00;;
15905;SDS011;8051;50.820;4.884;2023-06-14T06:37:13;13.47;;;12.27;;
15905;SDS011;8051;50.820;4.884;2023-06-14T06:39:41;13.17;;;11.97;;
15905;SDS011;8051;50.820;4.884;2023-06-14T06:42:09;13.90;;;12.57;;
15905;SDS011;8051;50.820;4.884;2023-06-14T06:44:36;13.93;;;12.67;;
15905;SDS011;8051;50.820;4.884;2023-06-14T06:47:04;16.20;;;12.70;;
15905;SDS011;8051;50.820;4.884;2023-06-14T06:49:32;13.60;;;12.50;;
15905;SDS011;8051;50.820;4.884;2023-06-14T06:52:01;14.60;;;13.27;;
15905;SDS011;8051;50.820;4.884;2023-06-14T06:54:30;13.90;;;12.53;;
15905;SDS011;8051;50.820;4.884;2023-06-14T06:56:57;14.10;;;12.63;;
15905;SDS011;8051;50.820;4.884;2023-06-14T06:59:25;15.00;;;13.77;;
15905;SDS011;8051;50.820;4.884;2023-06-14T07:01:52;14.33;;;13.03;;
15905;SDS011;8051;50.820;4.884;2023-06-14T07:04:20;13.73;;;12.53;;
15905;SDS011;8051;50.820;4.884;2023-06-14T07:06:47;15.77;;;14.33;;
15905;SDS011;8051;50.820;4.884;2023-06-14T07:09:16;15.33;;;13.73;;
15905;SDS011;8051;50.820;4.884;2023-06-14T07:11:45;14.50;;;13.30;;
15905;SDS011;8051;50.820;4.884;2023-06-14T07:14:13;15.03;;;13.53;;
15905;SDS011;8051;50.820;4.884;2023-06-14T07:16:40;15.57;;;13.93;;
15905;SDS011;8051;50.820;4.884;2023-06-14T07:19:08;13.60;;;12.40;;
15905;SDS011;8051;50.820;4.884;2023-06-14T07:21:36;13.97;;;12.87;;
15905;SDS011;8051;50.820;4.884;2023-06-14T07:24:04;15.27;;;13.83;;
15905;SDS011;8051;50.820;4.884;2023-06-14T07:26:34;16.97;;;13.23;;
15905;SDS011;8051;50.820;4.884;2023-06-14T07:29:02;14.40;;;13.10;;
15905;SDS011;8051;50.820;4.884;2023-06-14T07:31:29;14.07;;;13.07;;
15905;SDS011;8051;50.820;4.884;2023-06-14T07:33:57;14.93;;;13.63;;
15905;SDS011;8051;50.820;4.884;2023-06-14T07:36:24;17.07;;;13.80;;
15905;SDS011;8051;50.820;4.884;2023-06-14T07:38:52;13.93;;;12.57;;
15905;SDS011;8051;50.820;4.884;2023-06-14T07:41:20;14.80;;;13.43;;
15905;SDS011;8051;50.820;4.884;2023-06-14T07:43:48;13.87;;;12.77;;
15905;SDS011;8051;50.820;4.884;2023-06-14T07:46:16;14.47;;;13.33;;
15905;SDS011;8051;50.820;4.884;2023-06-14T07:48:44;14.10;;;12.90;;
15905;SDS011;8051;50.820;4.884;2023-06-14T07:51:11;15.83;;;14.33;;
15905;SDS011;8051;50.820;4.884;2023-06-14T07:53:39;16.53;;;15.13;;
15905;SDS011;8051;50.820;4.884;2023-06-14T07:56:07;14.40;;;13.30;;
15905;SDS011;8051;50.820;4.884;2023-06-14T07:58:35;16.93;;;15.47;;
15905;SDS011;8051;50.820;4.884;2023-06-14T08:01:04;21.13;;;14.80;;
15905;SDS011;8051;50.820;4.884;2023-06-14T08:03:33;15.73;;;14.57;;
15905;SDS011;8051;50.820;4.884;2023-06-14T08:06:01;15.33;;;14.13;;
15905;SDS011;8051;50.820;4.884;2023-06-14T08:08:29;16.50;;;15.20;;
15905;SDS011;8051;50.820;4.884;2023-06-14T08:10:56;15.00;;;14.00;;
15905;SDS011;8051;50.820;4.884;2023-06-14T08:13:24;15.37;;;13.67;;
15905;SDS011;8051;50.820;4.884;2023-06-14T08:15:52;14.30;;;13.00;;
15905;SDS011;8051;50.820;4.884;2023-06-14T08:18:20;13.47;;;12.23;;
15905;SDS011;8051;50.820;4.884;2023-06-14T08:20:48;15.13;;;13.83;;
15905;SDS011;8051;50.820;4.884;2023-06-14T08:23:17;15.77;;;13.87;;
15905;SDS011;8051;50.820;4.884;2023-06-14T08:25:46;15.40;;;14.07;;
15905;SDS011;8051;50.820;4.884;2023-06-14T08:28:13;13.57;;;12.57;;
15905;SDS011;8051;50.820;4.884;2023-06-14T08:30:41;14.00;;;12.83;;
15905;SDS011;8051;50.820;4.884;2023-06-14T08:33:09;14.97;;;13.40;;
15905;SDS011;8051;50.820;4.884;2023-06-14T08:35:38;14.40;;;12.23;;
15905;SDS011;8051;50.820;4.884;2023-06-14T08:38:05;13.83;;;12.73;;
15905;SDS011;8051;50.820;4.884;2023-06-14T08:40:33;14.17;;;13.03;;
15905;SDS011;8051;50.820;4.884;2023-06-14T08:43:04;14.27;;;13.00;;
15905;SDS011;8051;50.820;4.884;2023-06-14T08:45:32;14.27;;;12.93;;
15905;SDS011;8051;50.820;4.884;2023-06-14T08:48:00;13.73;;;12.30;;
15905;SDS011;8051;50.820;4.884;2023-06-14T08:50:27;14.73;;;13.63;;
15905;SDS011;8051;50.820;4.884;2023-06-14T08:52:58;13.83;;;12.63;;
15905;SDS011;8051;50.820;4.884;2023-06-14T08:55:28;14.37;;;13.00;;
15905;SDS011;8051;50.820;4.884;2023-06-14T08:57:56;15.13;;;13.70;;
15905;SDS011;8051;50.820;4.884;2023-06-14T09:00:24;14.57;;;13.30;;
15905;SDS011;8051;50.820;4.884;2023-06-14T09:02:53;12.90;;;11.80;;
15905;SDS011;8051;50.820;4.884;2023-06-14T09:05:23;13.17;;;12.20;;
15905;SDS011;8051;50.820;4.884;2023-06-14T09:07:50;13.93;;;12.60;;
15905;SDS011;8051;50.820;4.884;2023-06-14T09:10:21;13.67;;;12.30;;
15905;SDS011;8051;50.820;4.884;2023-06-14T09:12:51;13.27;;;12.23;;
15905;SDS011;8051;50.820;4.884;2023-06-14T09:15:18;14.93;;;13.60;;
15905;SDS011;8051;50.820;4.884;2023-06-14T09:17:46;14.40;;;13.10;;
15905;SDS011;8051;50.820;4.884;2023-06-14T09:20:15;15.37;;;12.20;;
15905;SDS011;8051;50.820;4.884;2023-06-14T09:22:43;14.83;;;13.73;;
15905;SDS011;8051;50.820;4.884;2023-06-14T09:25:11;17.10;;;13.73;;
15905;SDS011;8051;50.820;4.884;2023-06-14T09:27:42;14.90;;;13.47;;
15905;SDS011;8051;50.820;4.884;2023-06-14T09:30:09;13.50;;;12.23;;
15905;SDS011;8051;50.820;4.884;2023-06-14T09:32:38;27.10;;;13.90;;
15905;SDS011;8051;50.820;4.884;2023-06-14T09:35:07;13.37;;;12.47;;
15905;SDS011;8051;50.820;4.884;2023-06-14T09:37:35;13.77;;;12.67;;
15905;SDS011;8051;50.820;4.884;2023-06-14T09:40:04;14.67;;;13.47;;
15905;SDS011;8051;50.820;4.884;2023-06-14T09:42:32;13.17;;;12.27;;
15905;SDS011;8051;50.820;4.884;2023-06-14T09:45:02;12.70;;;11.70;;
15905;SDS011;8051;50.820;4.884;2023-06-14T09:47:31;19.47;;;13.10;;
15905;SDS011;8051;50.820;4.884;2023-06-14T09:49:58;13.23;;;11.80;;
15905;SDS011;8051;50.820;4.884;2023-06-14T09:52:26;15.20;;;12.17;;
15905;SDS011;8051;50.820;4.884;2023-06-14T09:54:55;13.03;;;12.10;;
15905;SDS011;8051;50.820;4.884;2023-06-14T09:57:25;14.87;;;13.60;;
15905;SDS011;8051;50.820;4.884;2023-06-14T09:59:56;12.13;;;11.23;;
15905;SDS011;8051;50.820;4.884;2023-06-14T10:02:28;13.37;;;12.03;;
15905;SDS011;8051;50.820;4.884;2023-06-14T10:04:58;14.17;;;13.03;;
15905;SDS011;8051;50.820;4.884;2023-06-14T10:07:32;14.63;;;12.07;;
15905;SDS011;8051;50.820;4.884;2023-06-14T10:10:04;12.77;;;11.97;;
15905;SDS011;8051;50.820;4.884;2023-06-14T10:12:32;13.97;;;12.57;;
15905;SDS011;8051;50.820;4.884;2023-06-14T10:15:00;13.67;;;12.70;;
15905;SDS011;8051;50.820;4.884;2023-06-14T10:17:33;13.07;;;11.93;;
15905;SDS011;8051;50.820;4.884;2023-06-14T10:20:15;14.83;;;11.90;;
15905;SDS011;8051;50.820;4.884;2023-06-14T10:22:49;13.50;;;12.30;;
15905;SDS011;8051;50.820;4.884;2023-06-14T10:25:26;13.07;;;12.17;;
15905;SDS011;8051;50.820;4.884;2023-06-14T10:31:06;14.00;;;12.63;;
15905;SDS011;8051;50.820;4.884;2023-06-14T10:33:36;12.67;;;11.87;;
15905;SDS011;8051;50.820;4.884;2023-06-14T10:36:09;13.23;;;12.00;;
15905;SDS011;8051;50.820;4.884;2023-06-14T10:38:58;13.17;;;12.13;;
15905;SDS011;8051;50.820;4.884;2023-06-14T10:41:32;19.90;;;11.47;;
15905;SDS011;8051;50.820;4.884;2023-06-14T10:47:21;13.27;;;12.27;;
15905;SDS011;8051;50.820;4.884;2023-06-14T10:49:55;12.13;;;11.27;;
15905;SDS011;8051;50.820;4.884;2023-06-14T10:52:29;12.23;;;11.27;;
15905;SDS011;8051;50.820;4.884;2023-06-14T10:55:08;11.20;;;10.27;;
15905;SDS011;8051;50.820;4.884;2023-06-14T10:57:38;12.00;;;11.00;;
15905;SDS011;8051;50.820;4.884;2023-06-14T11:00:07;11.77;;;10.60;;
15905;SDS011;8051;50.820;4.884;2023-06-14T11:05:51;12.73;;;11.60;;
15905;SDS011;8051;50.820;4.884;2023-06-14T11:11:18;17.47;;;11.40;;
15905;SDS011;8051;50.820;4.884;2023-06-14T11:13:48;12.33;;;10.30;;
15905;SDS011;8051;50.820;4.884;2023-06-14T11:16:17;11.93;;;10.70;;
15905;SDS011;8051;50.820;4.884;2023-06-14T11:18:45;12.63;;;11.37;;
15905;SDS011;8051;50.820;4.884;2023-06-14T11:21:18;11.53;;;10.53;;
15905;SDS011;8051;50.820;4.884;2023-06-14T11:23:49;13.07;;;11.87;;
15905;SDS011;8051;50.820;4.884;2023-06-14T11:26:24;11.83;;;10.70;;
15905;SDS011;8051;50.820;4.884;2023-06-14T11:28:54;11.43;;;10.57;;
15905;SDS011;8051;50.820;4.884;2023-06-14T11:31:23;12.13;;;11.10;;
15905;SDS011;8051;50.820;4.884;2023-06-14T11:33:53;13.23;;;11.97;;
15905;SDS011;8051;50.820;4.884;2023-06-14T11:36:21;11.67;;;10.80;;
15905;SDS011;8051;50.820;4.884;2023-06-14T11:38:57;12.07;;;11.27;;
15905;SDS011;8051;50.820;4.884;2023-06-14T11:41:25;13.10;;;11.93;;
15905;SDS011;8051;50.820;4.884;2023-06-14T11:43:59;16.77;;;11.43;;
15905;SDS011;8051;50.820;4.884;2023-06-14T11:46:27;12.00;;;11.27;;
15905;SDS011;8051;50.820;4.884;2023-06-14T11:48:53;13.30;;;11.80;;
15905;SDS011;8051;50.820;4.884;2023-06-14T11:51:22;13.53;;;12.53;;
15905;SDS011;8051;50.820;4.884;2023-06-14T11:53:49;11.93;;;10.70;;
15905;SDS011;8051;50.820;4.884;2023-06-14T11:56:16;10.63;;;9.93;;
15905;SDS011;8051;50.820;4.884;2023-06-14T11:58:44;11.20;;;10.40;;
15905;SDS011;8051;50.820;4.884;2023-06-14T12:01:14;14.17;;;10.00;;
15905;SDS011;8051;50.820;4.884;2023-06-14T12:03:47;11.87;;;10.97;;
15905;SDS011;8051;50.820;4.884;2023-06-14T12:06:15;11.53;;;10.90;;
15905;SDS011;8051;50.820;4.884;2023-06-14T12:08:44;10.33;;;9.63;;
15905;SDS011;8051;50.820;4.884;2023-06-14T12:11:14;10.67;;;9.97;;
15905;SDS011;8051;50.820;4.884;2023-06-14T12:13:42;11.03;;;10.30;;
15905;SDS011;8051;50.820;4.884;2023-06-14T12:16:10;11.90;;;10.90;;
15905;SDS011;8051;50.820;4.884;2023-06-14T12:18:40;12.57;;;11.50;;
15905;SDS011;8051;50.820;4.884;2023-06-14T12:21:08;12.17;;;11.30;;
15905;SDS011;8051;50.820;4.884;2023-06-14T12:23:40;8.93;;;8.33;;
15905;SDS011;8051;50.820;4.884;2023-06-14T12:26:12;8.47;;;7.80;;
15905;SDS011;8051;50.820;4.884;2023-06-14T12:28:41;9.23;;;8.60;;
15905;SDS011;8051;50.820;4.884;2023-06-14T12:31:10;10.47;;;9.27;;
15905;SDS011;8051;50.820;4.884;2023-06-14T12:33:38;9.33;;;8.73;;
15905;SDS011;8051;50.820;4.884;2023-06-14T12:36:06;11.00;;;10.00;;
15905;SDS011;8051;50.820;4.884;2023-06-14T12:38:35;11.17;;;10.57;;
15905;SDS011;8051;50.820;4.884;2023-06-14T12:41:04;10.93;;;10.23;;
15905;SDS011;8051;50.820;4.884;2023-06-14T12:43:31;9.70;;;9.10;;
15905;SDS011;8051;50.820;4.884;2023-06-14T12:45:58;10.53;;;9.53;;
15905;SDS011;8051;50.820;4.884;2023-06-14T12:48:25;10.43;;;9.80;;
15905;SDS011;8051;50.820;4.884;2023-06-14T12:50:54;9.20;;;8.70;;
15905;SDS011;8051;50.820;4.884;2023-06-14T12:53:21;10.33;;;9.73;;
15905;SDS011;8051;50.820;4.884;2023-06-14T12:55:49;8.63;;;8.13;;
15905;SDS011;8051;50.820;4.884;2023-06-14T12:58:18;8.30;;;7.73;;
15905;SDS011;8051;50.820;4.884;2023-06-14T13:00:45;9.03;;;8.57;;
15905;SDS011;8051;50.820;4.884;2023-06-14T13:03:12;9.93;;;9.43;;
15905;SDS011;8051;50.820;4.884;2023-06-14T13:05:39;8.90;;;8.40;;
15905;SDS011;8051;50.820;4.884;2023-06-14T13:08:08;10.23;;;9.73;;
15905;SDS011;8051;50.820;4.884;2023-06-14T13:10:35;9.97;;;9.47;;
15905;SDS011;8051;50.820;4.884;2023-06-14T13:13:03;10.80;;;10.10;;
15905;SDS011;8051;50.820;4.884;2023-06-14T13:15:33;11.00;;;10.20;;
15905;SDS011;8051;50.820;4.884;2023-06-14T13:18:01;11.80;;;10.97;;
15905;SDS011;8051;50.820;4.884;2023-06-14T13:20:28;11.63;;;10.93;;
15905;SDS011;8051;50.820;4.884;2023-06-14T13:22:55;10.90;;;10.30;;
15905;SDS011;8051;50.820;4.884;2023-06-14T13:25:22;12.03;;;11.40;;
15905;SDS011;8051;50.820;4.884;2023-06-14T13:27:50;11.50;;;10.80;;
15905;SDS011;8051;50.820;4.884;2023-06-14T13:30:17;11.27;;;10.50;;
15905;SDS011;8051;50.820;4.884;2023-06-14T13:32:46;11.07;;;10.37;;
15905;SDS011;8051;50.820;4.884;2023-06-14T13:35:14;11.37;;;10.57;;
15905;SDS011;8051;50.820;4.884;2023-06-14T13:37:41;11.30;;;10.60;;
15905;SDS011;8051;50.820;4.884;2023-06-14T13:40:09;11.47;;;10.57;;
15905;SDS011;8051;50.820;4.884;2023-06-14T13:42:37;10.80;;;10.10;;
15905;SDS011;8051;50.820;4.884;2023-06-14T13:45:05;11.40;;;10.70;;
15905;SDS011;8051;50.820;4.884;2023-06-14T13:47:34;11.57;;;10.70;;
15905;SDS011;8051;50.820;4.884;2023-06-14T13:50:03;11.53;;;10.93;;
15905;SDS011;8051;50.820;4.884;2023-06-14T13:52:31;12.07;;;11.33;;
15905;SDS011;8051;50.820;4.884;2023-06-14T13:54:58;11.20;;;10.60;;
15905;SDS011;8051;50.820;4.884;2023-06-14T13:57:26;12.47;;;11.77;;
15905;SDS011;8051;50.820;4.884;2023-06-14T13:59:53;12.27;;;11.53;;
15905;SDS011;8051;50.820;4.884;2023-06-14T14:02:28;12.17;;;11.47;;
15905;SDS011;8051;50.820;4.884;2023-06-14T14:04:56;11.73;;;10.80;;
15905;SDS011;8051;50.820;4.884;2023-06-14T14:07:25;12.00;;;11.30;;
15905;SDS011;8051;50.820;4.884;2023-06-14T14:09:53;12.10;;;11.40;;
15905;SDS011;8051;50.820;4.884;2023-06-14T14:12:22;12.80;;;11.83;;
15905;SDS011;8051;50.820;4.884;2023-06-14T14:14:50;11.90;;;11.20;;
15905;SDS011;8051;50.820;4.884;2023-06-14T14:17:17;11.67;;;11.07;;
15905;SDS011;8051;50.820;4.884;2023-06-14T14:19:44;11.30;;;10.57;;
15905;SDS011;8051;50.820;4.884;2023-06-14T14:22:12;11.20;;;10.70;;
15905;SDS011;8051;50.820;4.884;2023-06-14T14:24:40;11.83;;;11.13;;
15905;SDS011;8051;50.820;4.884;2023-06-14T14:27:07;11.77;;;10.80;;
15905;SDS011;8051;50.820;4.884;2023-06-14T14:29:35;11.50;;;10.80;;
15905;SDS011;8051;50.820;4.884;2023-06-14T14:32:02;11.73;;;11.13;;
15905;SDS011;8051;50.820;4.884;2023-06-14T14:34:29;11.30;;;10.60;;
15905;SDS011;8051;50.820;4.884;2023-06-14T14:36:56;10.80;;;10.20;;
15905;SDS011;8051;50.820;4.884;2023-06-14T14:39:24;11.30;;;10.60;;
15905;SDS011;8051;50.820;4.884;2023-06-14T14:41:52;12.30;;;11.60;;
15905;SDS011;8051;50.820;4.884;2023-06-14T14:44:19;11.00;;;10.20;;
15905;SDS011;8051;50.820;4.884;2023-06-14T14:46:46;10.10;;;9.50;;
15905;SDS011;8051;50.820;4.884;2023-06-14T14:49:14;11.33;;;10.40;;
15905;SDS011;8051;50.820;4.884;2023-06-14T14:51:41;10.00;;;9.10;;
15905;SDS011;8051;50.820;4.884;2023-06-14T14:54:09;10.80;;;10.10;;
15905;SDS011;8051;50.820;4.884;2023-06-14T14:56:37;10.60;;;9.90;;